Time;durP1;ratioP1;P1;durP2;ratioP2;P2;SDS_P1;SDS_P2;PMS_P1;PMS_P2;Temp;Humidity;BMP_temperature;BMP_pressure;BME280_temperature;BME280_humidity;BME280_pressure;Samples;Min_cycle;Max_cycle;Signal;HPM_P1;HPM_P2
2022/06/03 00:01:43;;;;;;;4.50;4.10;;;;;;;;;;5029454;28;20205;-72
2022/06/03 00:04:30;;;;;;;4.73;4.10;;;;;;;;;;5030921;28;20688;-72
2022/06/03 00:07:07;;;;;;;4.70;4.20;;;;;;;;;;5033021;28;20215;-72
2022/06/03 00:09:52;;;;;;;4.07;3.70;;;;;;;;;;5025890;28;20170;-72
2022/06/03 00:12:24;;;;;;;6.70;4.40;;;;;;;;;;5040707;28;20190;-73
2022/06/03 00:14:52;;;;;;;5.97;4.13;;;;;;;;;;5029687;28;20205;-73
2022/06/03 00:17:26;;;;;;;5.57;4.13;;;;;;;;;;5028674;28;20182;-73
2022/06/03 00:20:17;;;;;;;5.70;4.03;;;;;;;;;;5029815;28;20185;-72
2022/06/03 00:22:58;;;;;;;5.73;4.40;;;;;;;;;;4995120;28;20254;-73
2022/06/03 00:25:40;;;;;;;5.80;3.80;;;;;;;;;;5029820;28;20447;-73
2022/06/03 00:28:14;;;;;;;5.53;4.23;;;;;;;;;;5029005;28;20190;-73
2022/06/03 00:31:04;;;;;;;6.37;4.57;;;;;;;;;;5019799;28;20180;-72
2022/06/03 00:33:45;;;;;;;4.63;4.00;;;;;;;;;;5022911;28;20576;-73
2022/06/03 00:36:28;;;;;;;7.33;4.47;;;;;;;;;;5030460;28;20244;-72
2022/06/03 00:38:53;;;;;;;4.57;4.17;;;;;;;;;;5031992;28;20610;-72
2022/06/03 00:41:30;;;;;;;5.23;4.30;;;;;;;;;;5012717;28;20269;-73
2022/06/03 00:44:01;;;;;;;5.50;3.87;;;;;;;;;;5021621;28;20182;-72
2022/06/03 00:46:32;;;;;;;6.33;4.10;;;;;;;;;;5032826;28;20205;-73
2022/06/03 00:49:18;;;;;;;6.00;4.40;;;;;;;;;;5023714;28;20182;-72
2022/06/03 00:51:46;;;;;;;16.03;5.63;;;;;;;;;;5028280;28;20232;-73
2022/06/03 00:54:30;;;;;;;8.47;4.50;;;;;;;;;;5027416;28;20658;-72
2022/06/03 00:56:55;;;;;;;6.00;4.03;;;;;;;;;;5023616;28;20286;-73
2022/06/03 00:59:35;;;;;;;5.07;4.30;;;;;;;;;;5030258;28;20187;-72
2022/06/03 01:02:07;;;;;;;4.40;4.00;;;;;;;;;;5027180;28;20640;-72
2022/06/03 01:04:32;;;;;;;6.07;5.03;;;;;;;;;;5030321;28;20174;-73
2022/06/03 01:07:18;;;;;;;6.43;4.00;;;;;;;;;;5030238;28;20227;-72
2022/06/03 01:09:52;;;;;;;4.13;3.73;;;;;;;;;;5000332;28;20189;-72
2022/06/03 01:12:23;;;;;;;5.73;3.93;;;;;;;;;;5028779;28;21558;-72
2022/06/03 01:15:06;;;;;;;4.93;3.97;;;;;;;;;;5031017;28;20202;-73
2022/06/03 01:17:42;;;;;;;4.87;4.00;;;;;;;;;;5031860;28;20178;-72
2022/06/03 01:20:16;;;;;;;5.07;4.00;;;;;;;;;;5030854;28;20204;-72
2022/06/03 01:22:48;;;;;;;6.83;4.20;;;;;;;;;;5027292;28;20186;-72
2022/06/03 01:25:16;;;;;;;4.70;3.37;;;;;;;;;;5013733;28;20232;-73
2022/06/03 01:28:00;;;;;;;4.63;4.23;;;;;;;;;;5029413;28;20746;-72
2022/06/03 01:30:31;;;;;;;5.67;3.83;;;;;;;;;;5028031;28;20179;-72
2022/06/03 01:32:59;;;;;;;5.53;3.90;;;;;;;;;;5027814;28;20178;-73
2022/06/03 01:35:42;;;;;;;7.63;4.00;;;;;;;;;;5029569;28;20201;-73
2022/06/03 01:38:33;;;;;;;5.47;3.53;;;;;;;;;;5029896;28;20183;-73
2022/06/03 01:40:58;;;;;;;4.30;3.90;;;;;;;;;;5030195;28;20182;-73
2022/06/03 01:43:23;;;;;;;6.73;3.57;;;;;;;;;;5030321;28;20186;-73
2022/06/03 01:46:08;;;;;;;4.17;3.77;;;;;;;;;;5030593;28;20212;-72
2022/06/03 01:48:33;;;;;;;5.03;3.93;;;;;;;;;;5028016;28;20171;-72
2022/06/03 01:51:01;;;;;;;4.73;4.03;;;;;;;;;;5028608;28;20189;-72
2022/06/03 01:53:45;;;;;;;5.00;4.20;;;;;;;;;;5015568;28;20573;-72
2022/06/03 01:56:14;;;;;;;4.13;3.50;;;;;;;;;;5011583;28;20217;-73
2022/06/03 01:58:39;;;;;;;9.67;3.57;;;;;;;;;;5028796;28;20182;-73
2022/06/03 02:01:22;;;;;;;4.73;4.03;;;;;;;;;;5026739;28;20243;-73
2022/06/03 02:03:53;;;;;;;3.87;3.50;;;;;;;;;;5024795;28;20270;-71
2022/06/03 02:06:27;;;;;;;4.10;3.70;;;;;;;;;;5011382;28;20750;-72
2022/06/03 02:09:09;;;;;;;4.73;4.23;;;;;;;;;;5028726;28;20533;-73
2022/06/03 02:11:53;;;;;;;4.13;3.20;;;;;;;;;;5028996;28;20178;-71
2022/06/03 02:14:37;;;;;;;4.47;3.70;;;;;;;;;;5027081;28;20182;-72
2022/06/03 02:17:20;;;;;;;5.00;4.50;;;;;;;;;;5027245;28;20201;-72
2022/06/03 02:20:04;;;;;;;5.10;4.27;;;;;;;;;;5021439;28;20190;-73
2022/06/03 02:22:39;;;;;;;3.90;3.40;;;;;;;;;;5023047;28;20190;-71
2022/06/03 02:25:10;;;;;;;4.03;3.40;;;;;;;;;;5022493;28;20193;-71
2022/06/03 02:27:35;;;;;;;4.53;3.50;;;;;;;;;;5021708;28;20732;-72
2022/06/03 02:30:25;;;;;;;4.60;3.40;;;;;;;;;;5024055;28;20178;-72
2022/06/03 02:32:56;;;;;;;4.20;3.80;;;;;;;;;;5029003;28;20174;-73
2022/06/03 02:35:30;;;;;;;5.27;3.43;;;;;;;;;;5029380;28;20186;-72
2022/06/03 02:37:58;;;;;;;4.93;3.77;;;;;;;;;;5028398;28;20217;-73
2022/06/03 02:40:26;;;;;;;5.03;3.83;;;;;;;;;;5029651;28;20170;-73
2022/06/03 02:43:10;;;;;;;5.73;3.80;;;;;;;;;;5030231;28;20338;-73
2022/06/03 02:46:02;;;;;;;5.47;3.63;;;;;;;;;;5023854;28;20566;-72
2022/06/03 02:48:41;;;;;;;4.43;3.73;;;;;;;;;;5011250;28;20194;-72
2022/06/03 02:51:09;;;;;;;4.60;3.70;;;;;;;;;;5018586;28;20186;-72
2022/06/03 02:53:52;;;;;;;6.43;4.20;;;;;;;;;;5015063;28;20209;-72
2022/06/03 02:56:42;;;;;;;3.50;3.20;;;;;;;;;;5018284;28;20713;-73
2022/06/03 02:59:16;;;;;;;4.20;3.27;;;;;;;;;;5020358;28;20550;-72
2022/06/03 03:02:00;;;;;;;4.03;3.33;;;;;;;;;;5029786;28;20277;-72
2022/06/03 03:04:32;;;;;;;3.50;3.20;;;;;;;;;;5019899;28;20210;-73
2022/06/03 03:07:03;;;;;;;5.63;3.90;;;;;;;;;;5030063;28;20208;-73
2022/06/03 03:09:34;;;;;;;4.10;3.57;;;;;;;;;;5021287;28;20261;-73
2022/06/03 03:12:19;;;;;;;5.20;3.87;;;;;;;;;;5026898;28;20174;-72
2022/06/03 03:14:44;;;;;;;6.90;4.03;;;;;;;;;;5024886;28;20228;-73
2022/06/03 03:17:28;;;;;;;3.47;3.17;;;;;;;;;;5029488;28;20206;-72
2022/06/03 03:20:12;;;;;;;5.37;3.70;;;;;;;;;;5003976;28;20684;-72
2022/06/03 03:22:44;;;;;;;5.67;3.77;;;;;;;;;;5030426;28;20178;-72
2022/06/03 03:25:12;;;;;;;4.03;3.63;;;;;;;;;;5026529;28;20222;-73
2022/06/03 03:27:41;;;;;;;4.37;3.33;;;;;;;;;;5027940;28;20202;-72
2022/06/03 03:30:12;;;;;;;3.70;3.40;;;;;;;;;;5009722;28;20690;-73
2022/06/03 03:32:48;;;;;;;5.43;4.13;;;;;;;;;;5022528;28;20559;-73
2022/06/03 03:35:13;;;;;;;5.03;3.90;;;;;;;;;;5026244;28;20194;-73
2022/06/03 03:37:51;;;;;;;4.53;4.13;;;;;;;;;;5029798;28;20197;-72
2022/06/03 03:40:32;;;;;;;6.50;4.67;;;;;;;;;;5029549;28;20184;-73
2022/06/03 03:42:57;;;;;;;4.50;3.80;;;;;;;;;;5029580;28;20182;-73
2022/06/03 03:45:36;;;;;;;4.23;3.83;;;;;;;;;;5028856;28;20251;-72
2022/06/03 03:48:20;;;;;;;4.40;4.00;;;;;;;;;;5005709;28;20602;-73
2022/06/03 03:51:03;;;;;;;6.03;4.53;;;;;;;;;;5028979;28;20224;-73
2022/06/03 03:53:43;;;;;;;5.70;5.07;;;;;;;;;;5027436;28;20187;-72
2022/06/03 03:56:08;;;;;;;5.53;4.17;;;;;;;;;;5026334;28;20202;-72
2022/06/03 03:58:43;;;;;;;4.33;3.93;;;;;;;;;;5027622;28;20205;-73
2022/06/03 04:01:14;;;;;;;6.10;4.40;;;;;;;;;;5026613;28;20178;-73
2022/06/03 04:04:00;;;;;;;5.67;4.40;;;;;;;;;;5024143;28;20182;-72
2022/06/03 04:06:25;;;;;;;6.03;4.17;;;;;;;;;;5026498;28;20206;-72
2022/06/03 04:09:09;;;;;;;4.93;4.10;;;;;;;;;;5027570;28;20178;-73
2022/06/03 04:11:53;;;;;;;4.50;3.97;;;;;;;;;;5028542;28;20178;-73
2022/06/03 04:14:21;;;;;;;5.13;4.10;;;;;;;;;;5028811;28;20914;-72
2022/06/03 04:16:49;;;;;;;5.10;4.60;;;;;;;;;;5027701;28;20279;-72
2022/06/03 04:19:34;;;;;;;6.67;4.83;;;;;;;;;;5029174;28;20174;-73
2022/06/03 04:22:15;;;;;;;4.90;4.40;;;;;;;;;;5029111;28;20206;-74
2022/06/03 04:24:49;;;;;;;5.23;4.73;;;;;;;;;;5030160;28;20289;-74
2022/06/03 04:27:29;;;;;;;4.80;4.20;;;;;;;;;;5031639;28;20259;-73
2022/06/03 04:30:13;;;;;;;7.33;4.67;;;;;;;;;;5045289;28;20212;-73
2022/06/03 04:33:04;;;;;;;7.90;4.73;;;;;;;;;;5027027;28;20257;-73
2022/06/03 04:35:48;;;;;;;7.13;4.30;;;;;;;;;;5007971;28;20218;-72
2022/06/03 04:38:16;;;;;;;4.77;4.37;;;;;;;;;;5010964;28;20195;-71
2022/06/03 04:40:41;;;;;;;5.47;4.50;;;;;;;;;;5032100;28;20182;-72
2022/06/03 04:43:10;;;;;;;4.90;4.40;;;;;;;;;;5047518;28;20182;-72
2022/06/03 04:45:52;;;;;;;5.13;4.67;;;;;;;;;;5031381;28;20190;-72
2022/06/03 04:48:29;;;;;;;7.70;4.17;;;;;;;;;;5031420;28;20757;-72
2022/06/03 04:51:13;;;;;;;4.87;4.43;;;;;;;;;;5032071;28;20585;-71
2022/06/03 04:53:56;;;;;;;5.33;4.40;;;;;;;;;;5034437;28;20173;-72
2022/06/03 04:56:27;;;;;;;4.50;4.00;;;;;;;;;;5019583;28;20215;-72
2022/06/03 04:59:11;;;;;;;4.80;4.30;;;;;;;;;;5022827;28;20640;-72
2022/06/03 05:01:40;;;;;;;6.10;4.30;;;;;;;;;;5005889;28;20186;-73
2022/06/03 05:04:21;;;;;;;6.13;4.43;;;;;;;;;;5012054;28;20271;-73
2022/06/03 05:06:49;;;;;;;6.03;4.70;;;;;;;;;;5008752;28;20195;-71
2022/06/03 05:09:17;;;;;;;6.47;4.65;;;;;;;;;;5009901;28;20223;-71
2022/06/03 05:12:14;;;;;;;5.90;3.83;;;;;;;;;;5019335;28;20182;-74
2022/06/03 05:14:52;;;;;;;4.85;4.35;;;;;;;;;;4961526;28;20222;-73
2022/06/03 05:17:36;;;;;;;4.85;4.25;;;;;;;;;;5011366;28;20518;-73
2022/06/03 05:20:01;;;;;;;8.52;4.75;;;;;;;;;;5008323;28;20190;-72
2022/06/03 05:22:53;;;;;;;6.68;4.40;;;;;;;;;;5015232;28;20551;-73
2022/06/03 05:25:40;;;;;;;5.60;4.07;;;;;;;;;;5007570;28;20222;-73
2022/06/03 05:28:12;;;;;;;5.03;4.53;;;;;;;;;;5024913;28;20587;-73
2022/06/03 05:30:56;;;;;;;5.53;4.00;;;;;;;;;;5008313;28;20182;-73
2022/06/03 05:33:40;;;;;;;6.63;4.30;;;;;;;;;;5007797;28;20190;-72
2022/06/03 05:36:08;;;;;;;4.75;4.35;;;;;;;;;;5009853;28;20317;-73
2022/06/03 05:38:40;;;;;;;5.53;4.13;;;;;;;;;;5010156;28;20183;-73
2022/06/03 05:44:21;;;;;;;5.15;4.65;;;;;;;;;;5010447;28;20212;-73
2022/06/03 05:47:06;;;;;;;6.07;4.65;;;;;;;;;;5010663;28;20209;-73
2022/06/03 05:49:34;;;;;;;4.88;4.38;;;;;;;;;;5011709;28;20198;-73
2022/06/03 05:52:14;;;;;;;6.63;5.20;;;;;;;;;;5011196;28;20193;-73
2022/06/03 05:54:42;;;;;;;4.30;3.90;;;;;;;;;;5011175;28;20590;-72
2022/06/03 05:57:17;;;;;;;4.72;4.20;;;;;;;;;;5008956;28;20588;-72
2022/06/03 05:59:51;;;;;;;4.95;4.35;;;;;;;;;;5007482;28;20190;-72
2022/06/03 06:02:27;;;;;;;5.53;4.60;;;;;;;;;;5012568;28;21506;-72
2022/06/03 06:05:09;;;;;;;4.20;3.72;;;;;;;;;;5021237;28;20288;-72
2022/06/03 06:07:40;;;;;;;5.70;4.53;;;;;;;;;;5009039;28;20199;-72
2022/06/03 06:10:18;;;;;;;6.63;4.30;;;;;;;;;;5011060;28;20210;-72
2022/06/03 06:12:58;;;;;;;6.68;5.00;;;;;;;;;;5010649;28;21899;-72
2022/06/03 06:15:42;;;;;;;4.40;3.95;;;;;;;;;;5008058;28;20683;-72
2022/06/03 06:18:33;;;;;;;4.95;4.10;;;;;;;;;;5009196;28;20197;-72
2022/06/03 06:21:01;;;;;;;7.72;4.60;;;;;;;;;;4993747;28;20205;-72
2022/06/03 06:23:26;;;;;;;7.32;4.57;;;;;;;;;;5005490;28;20194;-73
2022/06/03 06:26:08;;;;;;;5.63;4.07;;;;;;;;;;5009554;28;20276;-72
2022/06/03 06:28:52;;;;;;;5.32;4.28;;;;;;;;;;5007697;28;20956;-72
2022/06/03 06:31:23;;;;;;;5.40;4.05;;;;;;;;;;5009383;28;20178;-72
2022/06/03 06:33:48;;;;;;;4.18;3.78;;;;;;;;;;5009047;28;20257;-72
2022/06/03 06:36:23;;;;;;;4.87;4.47;;;;;;;;;;5010120;28;20206;-72
2022/06/03 06:38:48;;;;;;;5.13;3.95;;;;;;;;;;5009792;28;20487;-73
2022/06/03 06:41:32;;;;;;;4.70;3.95;;;;;;;;;;5010719;28;20680;-73
2022/06/03 06:44:08;;;;;;;4.57;3.95;;;;;;;;;;5010744;28;20221;-72
2022/06/03 06:46:40;;;;;;;5.85;4.22;;;;;;;;;;5008551;28;20209;-72
2022/06/03 06:49:20;;;;;;;4.35;3.38;;;;;;;;;;5009130;28;20183;-72
2022/06/03 06:51:45;;;;;;;6.03;3.80;;;;;;;;;;5009409;28;20345;-71
2022/06/03 06:54:17;;;;;;;5.82;3.63;;;;;;;;;;5008776;28;20207;-72
2022/06/03 06:56:57;;;;;;;7.90;3.67;;;;;;;;;;5007341;28;21051;-72
2022/06/03 06:59:31;;;;;;;5.15;3.70;;;;;;;;;;5007378;28;20209;-71
2022/06/03 07:02:03;;;;;;;3.97;3.63;;;;;;;;;;5009252;28;20248;-71
2022/06/03 07:04:30;;;;;;;5.03;3.88;;;;;;;;;;5012153;28;20598;-72
2022/06/03 07:07:04;;;;;;;5.55;3.45;;;;;;;;;;5009468;28;20206;-71
2022/06/03 07:09:37;;;;;;;4.38;3.72;;;;;;;;;;5008661;28;20185;-72
2022/06/03 07:12:09;;;;;;;4.13;3.72;;;;;;;;;;5015000;28;20185;-72
2022/06/03 07:14:39;;;;;;;4.32;3.40;;;;;;;;;;5010440;28;20211;-72
2022/06/03 07:20:27;;;;;;;3.63;3.30;;;;;;;;;;5009113;28;20684;-72
2022/06/03 07:23:18;;;;;;;3.50;3.20;;;;;;;;;;5007368;28;20186;-72
2022/06/03 07:25:48;;;;;;;3.80;3.30;;;;;;;;;;5003686;28;20276;-72
2022/06/03 07:28:13;;;;;;;3.75;3.42;;;;;;;;;;5006888;28;20210;-72
2022/06/03 07:30:51;;;;;;;3.77;3.07;;;;;;;;;;5004606;28;20188;-72
2022/06/03 07:33:32;;;;;;;6.10;3.67;;;;;;;;;;5010565;28;20427;-72
2022/06/03 07:35:57;;;;;;;4.15;3.75;;;;;;;;;;5008512;28;22598;-72
2022/06/03 07:38:41;;;;;;;6.13;3.43;;;;;;;;;;5007803;28;20785;-72
2022/06/03 07:41:29;;;;;;;4.00;3.10;;;;;;;;;;5009776;28;20431;-72
2022/06/03 07:43:58;;;;;;;5.55;4.13;;;;;;;;;;4992309;28;20641;-72
2022/06/03 07:46:30;;;;;;;3.60;3.30;;;;;;;;;;5008481;28;20217;-72
2022/06/03 07:48:55;;;;;;;4.43;3.40;;;;;;;;;;5008391;28;21782;-72
2022/06/03 07:51:23;;;;;;;3.67;3.33;;;;;;;;;;5006930;28;20174;-72
2022/06/03 07:53:58;;;;;;;4.68;3.58;;;;;;;;;;5009409;28;20177;-72
2022/06/03 07:56:26;;;;;;;3.42;3.03;;;;;;;;;;5010598;28;20267;-72
2022/06/03 07:58:53;;;;;;;3.75;3.35;;;;;;;;;;5000685;28;20214;-72
2022/06/03 08:01:21;;;;;;;4.80;3.47;;;;;;;;;;5011593;28;20174;-72
2022/06/03 08:03:47;;;;;;;5.13;3.38;;;;;;;;;;5015499;28;20179;-72
2022/06/03 08:06:12;;;;;;;5.20;3.30;;;;;;;;;;5013482;28;20225;-72
2022/06/03 08:11:32;;;;;;;3.75;3.17;;;;;;;;;;5012882;28;20205;-72
2022/06/03 08:13:59;;;;;;;6.32;2.97;;;;;;;;;;5017223;28;20198;-72
2022/06/03 08:16:36;;;;;;;5.57;3.50;;;;;;;;;;5016316;28;20952;-72
2022/06/03 08:19:18;;;;;;;5.18;3.35;;;;;;;;;;5013288;28;20688;-72
2022/06/03 08:21:52;;;;;;;4.78;3.03;;;;;;;;;;5012433;28;20613;-72
2022/06/03 08:24:34;;;;;;;3.88;3.00;;;;;;;;;;5027948;28;20274;-71
2022/06/03 08:27:04;;;;;;;4.68;2.63;;;;;;;;;;5011066;28;20233;-72
2022/06/03 08:29:40;;;;;;;3.50;2.83;;;;;;;;;;5009663;28;21073;-72
2022/06/03 08:32:11;;;;;;;3.33;2.97;;;;;;;;;;5012231;28;20672;-72
2022/06/03 08:34:39;;;;;;;3.50;2.83;;;;;;;;;;5016041;28;20193;-72
2022/06/03 08:37:06;;;;;;;3.58;2.70;;;;;;;;;;5011710;28;20261;-72
2022/06/03 08:39:32;;;;;;;3.35;2.72;;;;;;;;;;5012227;28;20768;-72
2022/06/03 08:42:20;;;;;;;7.03;3.10;;;;;;;;;;5014108;28;20976;-72
2022/06/03 08:44:45;;;;;;;3.20;2.70;;;;;;;;;;5011795;28;20259;-72
2022/06/03 08:47:29;;;;;;;2.95;2.67;;;;;;;;;;5028131;28;20301;-72
2022/06/03 08:50:00;;;;;;;3.22;2.20;;;;;;;;;;5010810;28;20209;-72
2022/06/03 08:52:32;;;;;;;3.20;2.50;;;;;;;;;;5014973;28;20292;-72
2022/06/03 08:55:01;;;;;;;4.18;2.20;;;;;;;;;;5019715;28;20194;-72
2022/06/03 08:57:36;;;;;;;3.13;2.10;;;;;;;;;;5021069;28;20194;-72
2022/06/03 09:00:02;;;;;;;2.42;2.05;;;;;;;;;;5010854;28;20220;-72
2022/06/03 09:02:38;;;;;;;5.43;2.42;;;;;;;;;;5011860;28;20273;-72
2022/06/03 09:05:21;;;;;;;3.35;2.13;;;;;;;;;;5016159;28;20209;-72
2022/06/03 09:07:48;;;;;;;4.45;2.42;;;;;;;;;;5010244;28;20209;-72
2022/06/03 09:10:19;;;;;;;4.15;2.20;;;;;;;;;;5010695;28;20170;-72
2022/06/03 09:13:03;;;;;;;2.92;2.10;;;;;;;;;;5018065;28;20186;-72
2022/06/03 09:15:33;;;;;;;2.58;2.38;;;;;;;;;;5008979;28;20197;-72
2022/06/03 09:18:03;;;;;;;3.13;2.35;;;;;;;;;;5010222;28;20236;-72
2022/06/03 09:20:36;;;;;;;2.78;2.30;;;;;;;;;;5011991;28;20186;-72
2022/06/03 09:23:11;;;;;;;5.40;2.40;;;;;;;;;;5012191;28;20186;-72
2022/06/03 09:25:41;;;;;;;4.63;2.38;;;;;;;;;;5010171;28;20906;-72
2022/06/03 09:28:07;;;;;;;5.00;2.47;;;;;;;;;;5011093;28;20219;-72
2022/06/03 09:30:37;;;;;;;3.13;1.90;;;;;;;;;;5009203;28;20171;-72
2022/06/03 09:33:05;;;;;;;4.63;2.83;;;;;;;;;;5009863;28;20178;-71
2022/06/03 09:35:31;;;;;;;4.70;2.65;;;;;;;;;;5012718;28;20272;-71
2022/06/03 09:37:58;;;;;;;3.17;2.25;;;;;;;;;;5011654;28;20710;-71
2022/06/03 09:40:28;;;;;;;2.75;2.47;;;;;;;;;;5009162;28;20229;-71
2022/06/03 09:42:56;;;;;;;3.13;2.28;;;;;;;;;;4994862;28;20788;-71
2022/06/03 09:45:23;;;;;;;4.50;2.00;;;;;;;;;;5009938;28;20202;-71
2022/06/03 09:47:49;;;;;;;2.20;2.00;;;;;;;;;;5018159;28;20202;-71
2022/06/03 09:50:15;;;;;;;3.15;1.90;;;;;;;;;;5024419;28;20735;-72
2022/06/03 09:52:41;;;;;;;2.10;1.85;;;;;;;;;;5008479;28;20187;-71
2022/06/03 09:55:12;;;;;;;3.42;1.80;;;;;;;;;;5010183;28;20224;-72
2022/06/03 09:57:39;;;;;;;3.50;1.70;;;;;;;;;;5008576;28;20255;-72
2022/06/03 10:00:08;;;;;;;2.88;1.60;;;;;;;;;;5010267;28;20187;-72
2022/06/03 10:02:33;;;;;;;1.63;1.50;;;;;;;;;;5009688;28;20337;-72
2022/06/03 10:04:59;;;;;;;3.65;1.45;;;;;;;;;;5012334;28;20210;-72
2022/06/03 10:07:26;;;;;;;3.25;1.30;;;;;;;;;;5007780;28;20228;-72
2022/06/03 10:12:49;;;;;;;3.28;0.80;;;;;;;;;;5017217;28;20244;-72
2022/06/03 10:15:42;;;;;;;3.10;1.20;;;;;;;;;;5009767;28;20710;-72
2022/06/03 10:18:25;;;;;;;1.60;1.13;;;;;;;;;;5010004;28;20338;-72
2022/06/03 10:20:52;;;;;;;1.67;1.20;;;;;;;;;;4993517;28;20178;-72
2022/06/03 10:23:21;;;;;;;1.40;0.88;;;;;;;;;;5009996;28;20232;-72
2022/06/03 10:25:49;;;;;;;1.85;0.93;;;;;;;;;;5008846;28;20202;-72
2022/06/03 10:28:15;;;;;;;2.95;1.08;;;;;;;;;;5007546;28;21132;-72
2022/06/03 10:30:41;;;;;;;2.97;1.60;;;;;;;;;;5010897;28;21002;-72
2022/06/03 10:33:14;;;;;;;3.28;1.13;;;;;;;;;;5009291;28;20190;-72
2022/06/03 10:35:40;;;;;;;2.70;1.38;;;;;;;;;;5009461;28;20202;-72
2022/06/03 10:38:07;;;;;;;2.70;1.65;;;;;;;;;;5008379;28;20249;-72
2022/06/03 10:40:33;;;;;;;3.72;1.77;;;;;;;;;;5008740;28;20222;-73
2022/06/03 10:43:00;;;;;;;2.00;1.73;;;;;;;;;;5008937;28;20183;-73
2022/06/03 10:45:36;;;;;;;3.35;2.05;;;;;;;;;;5007591;28;20210;-72
2022/06/03 10:48:22;;;;;;;2.55;1.58;;;;;;;;;;5008622;28;20629;-72
2022/06/03 10:50:47;;;;;;;2.75;1.70;;;;;;;;;;5013179;28;20190;-72
2022/06/03 11:01:45;;;;;;;4.28;2.00;;;;;;;;;;5008576;28;20197;-71
2022/06/03 11:04:30;;;;;;;4.25;2.42;;;;;;;;;;5009013;28;20240;-71
2022/06/03 11:06:58;;;;;;;3.67;1.98;;;;;;;;;;5008838;28;20228;-72
2022/06/03 11:09:24;;;;;;;4.13;1.52;;;;;;;;;;5008369;28;20535;-71
2022/06/03 11:11:52;;;;;;;2.33;1.83;;;;;;;;;;5026806;28;20229;-69
2022/06/03 11:14:23;;;;;;;4.22;1.90;;;;;;;;;;5030320;28;20190;-70
2022/06/03 11:16:50;;;;;;;3.15;1.80;;;;;;;;;;5022093;28;20172;-72
2022/06/03 11:19:16;;;;;;;3.40;1.50;;;;;;;;;;5025814;28;21884;-72
2022/06/03 11:21:42;;;;;;;3.50;1.75;;;;;;;;;;5030343;28;20636;-72
2022/06/03 11:24:07;;;;;;;1.67;1.40;;;;;;;;;;5023043;28;20183;-71
2022/06/03 11:26:37;;;;;;;5.90;1.60;;;;;;;;;;5028585;28;20505;-72
2022/06/03 11:29:08;;;;;;;3.25;1.70;;;;;;;;;;5033882;28;20182;-71
2022/06/03 11:31:37;;;;;;;3.13;1.60;;;;;;;;;;5012876;28;20213;-71
2022/06/03 11:34:06;;;;;;;1.40;1.30;;;;;;;;;;5029245;28;20186;-71
2022/06/03 11:36:35;;;;;;;1.38;1.23;;;;;;;;;;5009840;28;20206;-72
2022/06/03 11:39:03;;;;;;;2.60;1.30;;;;;;;;;;5012299;28;20186;-71
2022/06/03 11:41:40;;;;;;;2.58;1.17;;;;;;;;;;5029079;28;20185;-70
2022/06/03 11:44:20;;;;;;;1.63;1.20;;;;;;;;;;5032664;28;20183;-70
2022/06/03 11:46:48;;;;;;;1.92;1.20;;;;;;;;;;5027597;28;20818;-70
2022/06/03 11:49:15;;;;;;;1.30;1.17;;;;;;;;;;5030910;28;20402;-70
2022/06/03 11:51:41;;;;;;;1.70;1.13;;;;;;;;;;5029208;28;20197;-70
2022/06/03 11:54:10;;;;;;;1.48;1.10;;;;;;;;;;5030676;28;20548;-70
2022/06/03 11:56:36;;;;;;;1.80;1.30;;;;;;;;;;5032767;28;20276;-70
2022/06/03 11:59:31;;;;;;;1.00;0.90;;;;;;;;;;5029459;28;20186;-70
2022/06/03 12:02:00;;;;;;;2.25;1.25;;;;;;;;;;5004808;28;20201;-71
2022/06/03 12:04:44;;;;;;;1.17;1.08;;;;;;;;;;5025434;28;20189;-70
2022/06/03 12:07:22;;;;;;;2.00;1.08;;;;;;;;;;5014189;28;20217;-70
2022/06/03 12:09:58;;;;;;;2.60;1.20;;;;;;;;;;5028078;28;20398;-70
2022/06/03 12:15:30;;;;;;;1.70;0.93;;;;;;;;;;5023789;28;20212;-71
2022/06/03 12:17:56;;;;;;;4.57;1.20;;;;;;;;;;5020226;28;20170;-70
2022/06/03 12:20:30;;;;;;;3.95;1.35;;;;;;;;;;5030130;28;20289;-71
2022/06/03 12:22:55;;;;;;;2.50;1.05;;;;;;;;;;5030694;28;20193;-70
2022/06/03 12:25:33;;;;;;;2.15;1.25;;;;;;;;;;5027721;28;20201;-71
2022/06/03 12:28:00;;;;;;;1.55;0.90;;;;;;;;;;5025588;28;20339;-70
2022/06/03 12:30:34;;;;;;;1.63;1.50;;;;;;;;;;5024462;28;20185;-70
2022/06/03 12:33:04;;;;;;;0.80;0.70;;;;;;;;;;5024429;28;20284;-70
2022/06/03 12:35:42;;;;;;;2.13;1.10;;;;;;;;;;5026183;28;20673;-71
2022/06/03 12:38:19;;;;;;;1.25;1.15;;;;;;;;;;5030933;28;20186;-71
2022/06/03 12:40:46;;;;;;;1.08;1.00;;;;;;;;;;5028165;28;20177;-70
2022/06/03 12:43:21;;;;;;;4.63;1.60;;;;;;;;;;5032831;28;20625;-70
2022/06/03 12:45:55;;;;;;;1.27;1.05;;;;;;;;;;5031974;28;20201;-71
2022/06/03 12:48:34;;;;;;;0.77;0.77;;;;;;;;;;5026726;28;20596;-71
2022/06/03 12:51:17;;;;;;;2.40;1.00;;;;;;;;;;5025842;28;20190;-71
2022/06/03 12:53:43;;;;;;;1.23;1.00;;;;;;;;;;5027483;28;20273;-73
2022/06/03 12:56:09;;;;;;;1.35;1.13;;;;;;;;;;5027984;28;20626;-70
2022/06/03 12:58:39;;;;;;;1.23;1.02;;;;;;;;;;5024291;28;20910;-71
2022/06/03 13:01:05;;;;;;;1.10;1.00;;;;;;;;;;5031154;28;20197;-70
2022/06/03 13:03:33;;;;;;;2.85;1.00;;;;;;;;;;5027244;28;20624;-71
2022/06/03 13:06:02;;;;;;;2.83;1.60;;;;;;;;;;5028311;28;20710;-71
2022/06/03 13:08:27;;;;;;;1.52;1.20;;;;;;;;;;5038355;28;20586;-71
2022/06/03 13:10:52;;;;;;;1.30;1.20;;;;;;;;;;5030253;28;20182;-71
2022/06/03 13:13:24;;;;;;;4.40;1.52;;;;;;;;;;5031693;28;20182;-71
2022/06/03 13:15:50;;;;;;;1.92;1.27;;;;;;;;;;5025963;28;20205;-71
2022/06/03 13:18:32;;;;;;;2.30;1.20;;;;;;;;;;5026793;28;20239;-72
2022/06/03 13:21:00;;;;;;;1.67;1.23;;;;;;;;;;5023831;28;20344;-71
2022/06/03 13:23:29;;;;;;;1.42;1.20;;;;;;;;;;5023681;28;20193;-72
2022/06/03 13:25:54;;;;;;;1.45;1.35;;;;;;;;;;5022946;28;20210;-71
2022/06/03 13:28:20;;;;;;;1.42;1.33;;;;;;;;;;5030384;28;20214;-70
2022/06/03 13:31:02;;;;;;;1.65;1.38;;;;;;;;;;5023088;28;20563;-71
2022/06/03 13:33:27;;;;;;;2.33;1.33;;;;;;;;;;5028890;28;20249;-70
2022/06/03 13:36:04;;;;;;;5.00;1.50;;;;;;;;;;5025121;28;20206;-71
2022/06/03 13:38:46;;;;;;;3.00;1.98;;;;;;;;;;5024063;28;20435;-71
2022/06/03 13:44:09;;;;;;;1.95;1.23;;;;;;;;;;5025454;28;20270;-71
2022/06/03 13:46:35;;;;;;;1.10;1.00;;;;;;;;;;5020777;28;20216;-71
2022/06/03 13:49:01;;;;;;;1.92;1.20;;;;;;;;;;5016639;28;20178;-72
2022/06/03 13:51:35;;;;;;;3.67;1.80;;;;;;;;;;5024390;28;20186;-72
2022/06/03 13:54:21;;;;;;;1.30;1.17;;;;;;;;;;5031757;28;20209;-71
2022/06/03 13:56:58;;;;;;;2.42;1.50;;;;;;;;;;5002013;28;20197;-72
2022/06/03 13:59:24;;;;;;;1.60;1.30;;;;;;;;;;5025058;28;20212;-71
2022/06/03 14:01:50;;;;;;;2.15;1.05;;;;;;;;;;5037814;28;20213;-72
2022/06/03 14:04:20;;;;;;;1.83;1.17;;;;;;;;;;5030703;28;22276;-71
2022/06/03 14:07:12;;;;;;;3.03;1.30;;;;;;;;;;5036702;28;20222;-71
2022/06/03 14:09:45;;;;;;;1.75;1.10;;;;;;;;;;5030587;28;20360;-72
2022/06/03 14:12:22;;;;;;;1.27;0.90;;;;;;;;;;5061626;28;21049;-71
2022/06/03 14:14:57;;;;;;;1.27;1.10;;;;;;;;;;5063398;28;20201;-71
2022/06/03 14:17:34;;;;;;;1.10;1.00;;;;;;;;;;5054981;28;20179;-71
2022/06/03 14:20:02;;;;;;;2.75;1.40;;;;;;;;;;5056713;28;20176;-71
2022/06/03 14:22:33;;;;;;;1.58;1.13;;;;;;;;;;5060239;28;20239;-71
2022/06/03 14:25:02;;;;;;;3.58;1.20;;;;;;;;;;5060403;28;20193;-71
2022/06/03 14:27:31;;;;;;;2.70;1.10;;;;;;;;;;5058183;28;20172;-71
2022/06/03 14:30:00;;;;;;;2.30;1.25;;;;;;;;;;5055016;28;20182;-72
2022/06/03 14:32:26;;;;;;;1.58;1.20;;;;;;;;;;5059515;28;20169;-72
2022/06/03 14:35:00;;;;;;;1.63;1.52;;;;;;;;;;5053358;28;20204;-72
2022/06/03 14:37:30;;;;;;;2.72;0.98;;;;;;;;;;5057025;28;20253;-72
2022/06/03 14:39:58;;;;;;;1.48;1.17;;;;;;;;;;5056905;28;20174;-72
2022/06/03 14:42:30;;;;;;;1.85;0.80;;;;;;;;;;5053617;28;20173;-72
2022/06/03 14:44:57;;;;;;;2.35;1.05;;;;;;;;;;5054653;28;20193;-72
2022/06/03 14:47:30;;;;;;;1.95;1.75;;;;;;;;;;5060674;28;20196;-72
2022/06/03 14:50:05;;;;;;;2.88;1.27;;;;;;;;;;5054476;28;20184;-72
2022/06/03 14:52:36;;;;;;;3.08;1.08;;;;;;;;;;5054897;28;20662;-72
2022/06/03 14:55:05;;;;;;;2.25;0.80;;;;;;;;;;5051434;28;20288;-72
2022/06/03 14:57:35;;;;;;;2.15;0.80;;;;;;;;;;5038386;28;20174;-72
2022/06/03 15:00:12;;;;;;;2.13;0.93;;;;;;;;;;5047049;28;20193;-73
2022/06/03 15:02:50;;;;;;;0.95;0.95;;;;;;;;;;5045039;28;20174;-73
2022/06/03 15:05:32;;;;;;;1.85;0.90;;;;;;;;;;5054322;28;20199;-72
2022/06/03 15:08:08;;;;;;;2.35;1.00;;;;;;;;;;5044105;28;20262;-73
2022/06/03 15:10:34;;;;;;;0.93;0.85;;;;;;;;;;5055357;28;20251;-73
2022/06/03 15:13:00;;;;;;;1.88;1.25;;;;;;;;;;5048678;28;20181;-73
2022/06/03 15:15:33;;;;;;;1.42;0.85;;;;;;;;;;5043811;28;20194;-73
2022/06/03 15:18:16;;;;;;;3.85;1.10;;;;;;;;;;5045591;28;20485;-73
2022/06/03 15:21:04;;;;;;;1.80;1.20;;;;;;;;;;5050033;28;21015;-73
2022/06/03 15:23:29;;;;;;;1.45;1.20;;;;;;;;;;5029241;28;20249;-72
2022/06/03 15:25:55;;;;;;;1.42;1.10;;;;;;;;;;5035854;28;20629;-72
2022/06/03 15:28:21;;;;;;;1.25;1.10;;;;;;;;;;5028134;28;20208;-73
2022/06/03 15:30:51;;;;;;;1.40;1.20;;;;;;;;;;5034862;28;20232;-72
2022/06/03 15:33:20;;;;;;;1.33;0.90;;;;;;;;;;5032728;28;20181;-73
2022/06/03 15:35:46;;;;;;;1.05;1.00;;;;;;;;;;5034487;28;20197;-73
2022/06/03 15:38:15;;;;;;;2.78;1.10;;;;;;;;;;5029037;28;20232;-73
2022/06/03 15:40:42;;;;;;;2.45;1.10;;;;;;;;;;5029756;28;20552;-73
2022/06/03 15:43:10;;;;;;;1.10;0.98;;;;;;;;;;5038912;28;20277;-73
2022/06/03 15:45:35;;;;;;;2.60;1.20;;;;;;;;;;5033692;28;20606;-72
2022/06/03 15:48:05;;;;;;;1.23;1.13;;;;;;;;;;5030246;28;20229;-73